Calais, Vermont
Current Conditions -  °F | °C
As of 9:06 AM on Thursday 30 Oct 2014 (Local Time) from KMVL Reporting Station
Overcast Overcast  
Wind Chill: 40°   Ceiling: 3000
Heat Index: 44°   Visibility: 10mi
Dew Point: 39°   Wind: 7mph
Humidity: 82%   Direction: 330°NNW
Pressure: 29.96"   Gusts: NA
Location:  44.38°N, 72.49°W
Report Text: KMVL 301306Z AUTO 33006KT 10SM FEW021 BKN030 OVC048 07/04 A2996 RMK AO2 RAE01 P0000 T00670039
Loading
Personal Weather Stations






























Interactive Weather Map
Tropical Storm Tracking
New forecast layout! Learn more

10-Day Weather Forecast

Advertisements
Track Severe Weather on mobile